Terminal Aerodrome Forecast
Issued by NWS

Home | Current Version | Previous Version | Graphics & Text | Print | Product List | Glossary On
Versions: 1 2 3 4 5 6 7 8 9 10 11 12 13 14 15 16
000
FTUS43 KMPX 271700
TAFAXN
TAF
KAXN 271720Z 2718/2818 15005KT P6SM SCT030 SCT070 SCT250
     FM280900 12004KT P6SM BKN070 OVC150
     FM281500 15008KT P6SM OVC050=

USA.gov is the U.S. government's official web portal to all federal, state and local government web resources and services.